Time;durP1;ratioP1;P1;durP2;ratioP2;P2;SDS_P1;SDS_P2;PMS_P1;PMS_P2;Temp;Humidity;BMP_temperature;BMP_pressure;BME280_temperature;BME280_humidity;BME280_pressure;Samples;Min_cycle;Max_cycle;Signal;HPM_P1;HPM_P2
2022/07/31 00:00:29;;;;;;;5.18;4.55;;;;;;;;;;5072173;28;20289;-44
2022/07/31 00:02:54;;;;;;;7.50;4.57;;;;;;;;;;5073514;28;20043;-44
2022/07/31 00:05:20;;;;;;;8.63;3.92;;;;;;;;;;5073708;28;20058;-44
2022/07/31 00:07:45;;;;;;;6.32;4.40;;;;;;;;;;5073523;28;20053;-44
2022/07/31 00:10:10;;;;;;;5.15;4.65;;;;;;;;;;5072495;28;20093;-44
2022/07/31 00:12:36;;;;;;;9.93;4.38;;;;;;;;;;5073624;28;20050;-44
2022/07/31 00:15:02;;;;;;;6.78;4.72;;;;;;;;;;5071866;28;20097;-44
2022/07/31 00:17:27;;;;;;;6.18;4.65;;;;;;;;;;5071904;28;20021;-44
2022/07/31 00:19:52;;;;;;;5.75;4.65;;;;;;;;;;5072532;28;20090;-45
2022/07/31 00:22:18;;;;;;;5.10;4.45;;;;;;;;;;5073792;28;20032;-44
2022/07/31 00:24:43;;;;;;;6.03;4.53;;;;;;;;;;5073643;28;20044;-44
2022/07/31 00:27:09;;;;;;;6.40;4.50;;;;;;;;;;5071699;28;20017;-44
2022/07/31 00:29:35;;;;;;;5.80;4.35;;;;;;;;;;5073904;28;20016;-44
2022/07/31 00:32:00;;;;;;;7.13;4.47;;;;;;;;;;5073303;28;20013;-44
2022/07/31 00:34:25;;;;;;;6.22;4.78;;;;;;;;;;5072112;28;20023;-45
2022/07/31 00:36:51;;;;;;;6.10;4.28;;;;;;;;;;5072563;28;20025;-44
2022/07/31 00:39:16;;;;;;;6.78;4.63;;;;;;;;;;5071376;28;20086;-44
2022/07/31 00:41:42;;;;;;;6.15;4.45;;;;;;;;;;5072010;28;20106;-44
2022/07/31 00:44:08;;;;;;;8.70;4.15;;;;;;;;;;5071452;28;20017;-46
2022/07/31 00:46:33;;;;;;;5.22;4.68;;;;;;;;;;5073214;28;20024;-44
2022/07/31 00:48:59;;;;;;;6.10;4.43;;;;;;;;;;5073167;28;20460;-45
2022/07/31 00:51:24;;;;;;;7.90;4.68;;;;;;;;;;5073209;28;20384;-45
2022/07/31 00:53:49;;;;;;;6.68;4.38;;;;;;;;;;5071131;28;20024;-44
2022/07/31 00:56:15;;;;;;;8.98;4.55;;;;;;;;;;5072524;28;20016;-44
2022/07/31 00:58:40;;;;;;;6.65;4.88;;;;;;;;;;5072485;28;20070;-45
2022/07/31 01:01:05;;;;;;;4.90;4.15;;;;;;;;;;5072766;28;20028;-45
2022/07/31 01:03:31;;;;;;;8.07;4.03;;;;;;;;;;5072749;28;20020;-44
2022/07/31 01:05:56;;;;;;;8.18;4.40;;;;;;;;;;5072338;28;20052;-44
2022/07/31 01:08:21;;;;;;;5.60;4.47;;;;;;;;;;5072323;28;20020;-44
2022/07/31 01:10:53;;;;;;;4.80;4.32;;;;;;;;;;5071899;28;20024;-46
2022/07/31 01:13:44;;;;;;;5.53;4.97;;;;;;;;;;5071007;28;20032;-45
2022/07/31 01:16:11;;;;;;;4.25;3.80;;;;;;;;;;5068857;28;20060;-44
2022/07/31 01:18:38;;;;;;;7.18;4.68;;;;;;;;;;5072191;28;20048;-44
2022/07/31 01:21:05;;;;;;;4.95;4.10;;;;;;;;;;5071922;28;20434;-45
2022/07/31 01:23:56;;;;;;;4.32;3.92;;;;;;;;;;5071877;28;20028;-44
2022/07/31 01:26:21;;;;;;;5.60;4.93;;;;;;;;;;5063020;28;20387;-42
2022/07/31 01:28:59;;;;;;;8.45;4.95;;;;;;;;;;5071625;28;20025;-44
2022/07/31 01:31:40;;;;;;;6.20;4.63;;;;;;;;;;5072074;28;20446;-44
2022/07/31 01:34:08;;;;;;;6.95;4.82;;;;;;;;;;5070684;28;20024;-44
2022/07/31 01:36:35;;;;;;;6.82;5.05;;;;;;;;;;5070834;28;20480;-46
2022/07/31 01:39:01;;;;;;;5.40;4.68;;;;;;;;;;5070699;28;20120;-47
2022/07/31 01:41:29;;;;;;;8.38;5.07;;;;;;;;;;5070726;28;20115;-44
2022/07/31 01:43:55;;;;;;;6.00;4.65;;;;;;;;;;5071463;28;20087;-44
2022/07/31 01:46:22;;;;;;;8.02;5.18;;;;;;;;;;5071883;28;20463;-44
2022/07/31 01:48:48;;;;;;;6.30;5.30;;;;;;;;;;5070515;28;20028;-44
2022/07/31 01:51:14;;;;;;;8.88;4.93;;;;;;;;;;5070588;28;20024;-44
2022/07/31 01:53:42;;;;;;;7.22;5.40;;;;;;;;;;5071826;28;20154;-45
2022/07/31 01:56:08;;;;;;;6.63;4.63;;;;;;;;;;5071575;28;20514;-44
2022/07/31 01:58:40;;;;;;;7.03;4.68;;;;;;;;;;5071196;28;20017;-44
2022/07/31 02:01:07;;;;;;;6.07;4.95;;;;;;;;;;5071776;28;20036;-44
2022/07/31 02:03:33;;;;;;;6.47;5.05;;;;;;;;;;5071383;28;20055;-44
2022/07/31 02:05:59;;;;;;;6.80;5.13;;;;;;;;;;5071366;28;20056;-44
2022/07/31 02:08:26;;;;;;;5.45;4.88;;;;;;;;;;5069614;28;20025;-46
2022/07/31 02:10:52;;;;;;;6.40;5.05;;;;;;;;;;5071353;28;20375;-46
2022/07/31 02:13:18;;;;;;;5.55;4.97;;;;;;;;;;5070145;28;20012;-45
2022/07/31 02:15:44;;;;;;;8.73;5.75;;;;;;;;;;5071660;28;20028;-44
2022/07/31 02:18:10;;;;;;;5.85;4.88;;;;;;;;;;5071016;28;20024;-44
2022/07/31 02:20:36;;;;;;;8.02;5.07;;;;;;;;;;5069898;28;20044;-44
2022/07/31 02:23:01;;;;;;;6.03;4.82;;;;;;;;;;5071141;28;20025;-44
2022/07/31 02:25:28;;;;;;;7.07;4.88;;;;;;;;;;5069548;28;20013;-44
2022/07/31 02:27:55;;;;;;;7.70;5.47;;;;;;;;;;5070436;28;20439;-46
2022/07/31 02:30:21;;;;;;;6.05;4.53;;;;;;;;;;5070254;28;20048;-44
2022/07/31 02:32:47;;;;;;;5.88;4.90;;;;;;;;;;5070196;28;20020;-44
2022/07/31 02:35:14;;;;;;;5.88;5.00;;;;;;;;;;5071458;28;20020;-45
2022/07/31 02:37:41;;;;;;;7.45;4.60;;;;;;;;;;5071546;28;20371;-44
2022/07/31 02:40:08;;;;;;;5.10;4.60;;;;;;;;;;5069250;28;20032;-45
2022/07/31 02:42:33;;;;;;;4.65;4.22;;;;;;;;;;5071152;28;20357;-47
2022/07/31 02:44:59;;;;;;;5.10;4.38;;;;;;;;;;5071187;28;20035;-45
2022/07/31 02:47:25;;;;;;;6.63;5.20;;;;;;;;;;5071202;28;20020;-44
2022/07/31 02:49:51;;;;;;;6.57;4.88;;;;;;;;;;5071284;28;20019;-46
2022/07/31 02:52:16;;;;;;;5.70;4.50;;;;;;;;;;5071220;28;20391;-46
2022/07/31 02:54:43;;;;;;;6.25;4.65;;;;;;;;;;5071168;28;20399;-46
2022/07/31 02:57:08;;;;;;;5.00;4.50;;;;;;;;;;5071275;28;20029;-45
2022/07/31 02:59:37;;;;;;;5.25;4.53;;;;;;;;;;5071190;28;20036;-46
2022/07/31 03:02:03;;;;;;;5.95;4.78;;;;;;;;;;5074986;28;20029;-46
2022/07/31 03:04:28;;;;;;;4.63;4.22;;;;;;;;;;5075144;28;20035;-44
2022/07/31 03:06:54;;;;;;;5.43;4.00;;;;;;;;;;5075195;28;20053;-44
2022/07/31 03:09:19;;;;;;;5.90;3.95;;;;;;;;;;5074686;28;20016;-44
2022/07/31 03:11:44;;;;;;;4.63;4.22;;;;;;;;;;5073273;28;20107;-44
2022/07/31 03:14:11;;;;;;;5.40;4.32;;;;;;;;;;5074523;28;20020;-44
2022/07/31 03:16:36;;;;;;;5.18;4.68;;;;;;;;;;5074087;28;20031;-45
2022/07/31 03:19:02;;;;;;;4.38;3.83;;;;;;;;;;5074649;28;20016;-45
2022/07/31 03:21:29;;;;;;;6.50;4.28;;;;;;;;;;5073553;28;20502;-44
2022/07/31 03:23:55;;;;;;;7.25;4.05;;;;;;;;;;5074643;28;20016;-44
2022/07/31 03:26:20;;;;;;;4.90;4.40;;;;;;;;;;5074764;28;20024;-45
2022/07/31 03:28:45;;;;;;;10.73;4.65;;;;;;;;;;5074628;28;20032;-46
2022/07/31 03:31:10;;;;;;;8.38;4.25;;;;;;;;;;5074523;28;20383;-44
2022/07/31 03:33:36;;;;;;;5.57;4.05;;;;;;;;;;5073464;28;20452;-44
2022/07/31 03:36:01;;;;;;;6.45;4.30;;;;;;;;;;5074545;28;20024;-46
2022/07/31 03:38:27;;;;;;;5.82;4.32;;;;;;;;;;5074139;28;20020;-46
2022/07/31 03:40:52;;;;;;;7.65;4.70;;;;;;;;;;5073147;28;20033;-44
2022/07/31 03:43:18;;;;;;;7.18;4.68;;;;;;;;;;5072872;28;20023;-44
2022/07/31 03:45:44;;;;;;;5.43;4.40;;;;;;;;;;5074399;28;20017;-46
2022/07/31 03:48:09;;;;;;;7.40;4.13;;;;;;;;;;5074114;28;20027;-44
2022/07/31 03:50:38;;;;;;;4.82;4.30;;;;;;;;;;5073857;28;20095;-44
2022/07/31 03:53:04;;;;;;;13.05;5.22;;;;;;;;;;5072732;28;20484;-46
2022/07/31 03:55:31;;;;;;;4.40;3.80;;;;;;;;;;5073780;28;20020;-43
2022/07/31 03:57:57;;;;;;;6.22;4.63;;;;;;;;;;5074085;28;20017;-44
2022/07/31 04:00:26;;;;;;;4.30;3.90;;;;;;;;;;5073585;28;20086;-44
2022/07/31 04:02:52;;;;;;;4.68;4.28;;;;;;;;;;5072234;28;20107;-44
2022/07/31 04:05:17;;;;;;;6.43;4.70;;;;;;;;;;5072327;28;20024;-44
2022/07/31 04:07:43;;;;;;;7.13;4.97;;;;;;;;;;5073807;28;20041;-45
2022/07/31 04:10:08;;;;;;;8.20;4.97;;;;;;;;;;5073379;28;20283;-45
2022/07/31 04:12:33;;;;;;;4.68;4.15;;;;;;;;;;5073079;28;20104;-47
2022/07/31 04:14:59;;;;;;;6.50;4.57;;;;;;;;;;5072970;28;20027;-46
2022/07/31 04:17:24;;;;;;;5.60;4.40;;;;;;;;;;5073213;28;20483;-45
2022/07/31 04:19:49;;;;;;;5.55;4.25;;;;;;;;;;5073341;28;20029;-46
2022/07/31 04:22:15;;;;;;;6.50;4.50;;;;;;;;;;5072561;28;20020;-47
2022/07/31 04:24:40;;;;;;;4.78;3.33;;;;;;;;;;5072238;28;20021;-45
2022/07/31 04:27:05;;;;;;;7.03;3.97;;;;;;;;;;5073490;28;20024;-46
2022/07/31 04:29:31;;;;;;;4.13;3.65;;;;;;;;;;5071718;28;20429;-46
2022/07/31 04:31:56;;;;;;;7.67;3.90;;;;;;;;;;5073464;28;20032;-45
2022/07/31 04:34:21;;;;;;;9.30;4.07;;;;;;;;;;5074029;28;20363;-45
2022/07/31 04:36:46;;;;;;;6.75;3.50;;;;;;;;;;5074066;28;20589;-44
2022/07/31 04:39:12;;;;;;;5.47;3.67;;;;;;;;;;5072723;28;20464;-45
2022/07/31 04:41:38;;;;;;;6.38;4.57;;;;;;;;;;5071908;28;20166;-45
2022/07/31 04:44:04;;;;;;;4.47;3.53;;;;;;;;;;5073360;28;20023;-44
2022/07/31 04:46:29;;;;;;;6.72;3.75;;;;;;;;;;5073286;28;20021;-44
2022/07/31 04:48:54;;;;;;;3.90;3.50;;;;;;;;;;5073181;28;20038;-45
2022/07/31 04:51:20;;;;;;;5.78;3.45;;;;;;;;;;5072469;28;20253;-45
2022/07/31 04:53:46;;;;;;;5.32;3.53;;;;;;;;;;5073073;28;20024;-44
2022/07/31 04:58:56;;;;;;;6.43;3.40;;;;;;;;;;5072980;28;20558;-45
2022/07/31 05:01:21;;;;;;;6.25;3.60;;;;;;;;;;5072529;28;20017;-45
2022/07/31 05:03:47;;;;;;;4.85;3.28;;;;;;;;;;5071360;28;20394;-45
2022/07/31 05:06:12;;;;;;;4.47;3.40;;;;;;;;;;5071642;28;20071;-42
2022/07/31 05:08:38;;;;;;;4.78;3.00;;;;;;;;;;5072898;28;20026;-42
2022/07/31 05:11:22;;;;;;;4.00;3.28;;;;;;;;;;5072639;28;20452;-42
2022/07/31 05:13:48;;;;;;;63.45;5.38;;;;;;;;;;5071337;28;20056;-43
2022/07/31 05:16:13;;;;;;;5.10;2.85;;;;;;;;;;5072424;28;20071;-44
2022/07/31 05:18:39;;;;;;;7.45;3.55;;;;;;;;;;5071472;28;20078;-42
2022/07/31 05:21:04;;;;;;;4.68;3.33;;;;;;;;;;5071268;28;20166;-43
2022/07/31 05:23:29;;;;;;;29.27;4.77;;;;;;;;;;5072093;28;20452;-43
2022/07/31 05:25:55;;;;;;;8.18;2.90;;;;;;;;;;5072330;28;20290;-42
2022/07/31 05:28:20;;;;;;;3.95;3.08;;;;;;;;;;5072144;28;20043;-42
2022/07/31 05:30:45;;;;;;;7.15;2.95;;;;;;;;;;5072443;28;20516;-42
2022/07/31 05:33:10;;;;;;;3.67;3.35;;;;;;;;;;5072177;28;20028;-42
2022/07/31 05:35:36;;;;;;;14.43;3.00;;;;;;;;;;5072422;28;20101;-43
2022/07/31 05:38:01;;;;;;;4.45;3.15;;;;;;;;;;5072409;28;20558;-42
2022/07/31 05:40:26;;;;;;;6.40;3.42;;;;;;;;;;5071643;28;20082;-42
2022/07/31 05:42:52;;;;;;;4.32;2.97;;;;;;;;;;5071633;28;20032;-43
2022/07/31 05:45:17;;;;;;;3.33;3.03;;;;;;;;;;5071835;28;20024;-43
2022/07/31 05:47:43;;;;;;;18.33;4.00;;;;;;;;;;5070599;28;20103;-42
2022/07/31 05:50:08;;;;;;;9.32;2.50;;;;;;;;;;5072620;28;20100;-44
2022/07/31 05:52:33;;;;;;;4.68;2.95;;;;;;;;;;5069860;28;20462;-45
2022/07/31 05:54:59;;;;;;;4.40;2.97;;;;;;;;;;5071309;28;20062;-44
2022/07/31 05:57:24;;;;;;;5.03;2.97;;;;;;;;;;5069920;28;20285;-44
2022/07/31 05:59:49;;;;;;;5.20;3.50;;;;;;;;;;5071599;28;20453;-44
2022/07/31 06:02:15;;;;;;;3.95;2.80;;;;;;;;;;5071596;28;20062;-49
2022/07/31 06:04:40;;;;;;;3.75;3.15;;;;;;;;;;5070119;28;20066;-45
2022/07/31 06:07:06;;;;;;;3.40;3.08;;;;;;;;;;5069123;28;20055;-46
2022/07/31 06:09:31;;;;;;;3.08;2.50;;;;;;;;;;5070484;28;20023;-44
2022/07/31 06:11:56;;;;;;;5.25;2.80;;;;;;;;;;5071729;28;20042;-44
2022/07/31 06:14:22;;;;;;;7.00;2.85;;;;;;;;;;5071464;28;20021;-45
2022/07/31 06:16:48;;;;;;;8.13;2.92;;;;;;;;;;5071934;28;20031;-44
2022/07/31 06:19:14;;;;;;;6.05;2.63;;;;;;;;;;5071494;28;20141;-44
2022/07/31 06:21:39;;;;;;;7.97;3.35;;;;;;;;;;5071659;28;20035;-46
2022/07/31 06:24:05;;;;;;;4.27;2.83;;;;;;;;;;5071401;28;20052;-45
2022/07/31 06:26:30;;;;;;;5.30;2.92;;;;;;;;;;5069477;28;20741;-45
2022/07/31 06:28:55;;;;;;;3.75;2.65;;;;;;;;;;5071581;28;20363;-44
2022/07/31 06:31:21;;;;;;;4.13;2.60;;;;;;;;;;5070036;28;20028;-44
2022/07/31 06:33:46;;;;;;;4.07;2.50;;;;;;;;;;5071741;28;20013;-43
2022/07/31 06:36:12;;;;;;;3.25;2.65;;;;;;;;;;5070903;28;20504;-44
2022/07/31 06:38:37;;;;;;;14.40;2.70;;;;;;;;;;5071716;28;20032;-46
2022/07/31 06:41:03;;;;;;;4.00;2.53;;;;;;;;;;5069822;28;20281;-45
2022/07/31 06:43:28;;;;;;;17.33;3.55;;;;;;;;;;5071280;28;20091;-45
2022/07/31 06:45:53;;;;;;;7.07;2.30;;;;;;;;;;5071234;28;20024;-45
2022/07/31 06:48:19;;;;;;;5.63;2.60;;;;;;;;;;5069874;28;20368;-46
2022/07/31 06:50:44;;;;;;;4.10;2.60;;;;;;;;;;5070110;28;20460;-46
2022/07/31 06:53:10;;;;;;;5.68;2.45;;;;;;;;;;5071011;28;20020;-44
2022/07/31 06:55:35;;;;;;;3.50;2.38;;;;;;;;;;5071227;28;20016;-44
2022/07/31 06:58:00;;;;;;;2.25;2.03;;;;;;;;;;5069927;28;20502;-44
2022/07/31 07:00:26;;;;;;;7.97;2.17;;;;;;;;;;5068671;28;20395;-45
2022/07/31 07:02:51;;;;;;;3.72;2.22;;;;;;;;;;5068951;28;20426;-44
2022/07/31 07:05:16;;;;;;;13.68;4.30;;;;;;;;;;5070881;28;20388;-45
2022/07/31 07:07:42;;;;;;;3.60;2.22;;;;;;;;;;5070860;28;20472;-43
2022/07/31 07:10:07;;;;;;;2.43;2.10;;;;;;;;;;5070851;28;20527;-45
2022/07/31 07:12:32;;;;;;;2.33;1.90;;;;;;;;;;5069270;28;20268;-45
2022/07/31 07:14:58;;;;;;;3.28;2.20;;;;;;;;;;5070784;28;20454;-44
2022/07/31 07:17:23;;;;;;;4.60;2.28;;;;;;;;;;5070752;28;20359;-46
2022/07/31 07:19:48;;;;;;;4.33;1.80;;;;;;;;;;5071005;28;20068;-45
2022/07/31 07:22:13;;;;;;;5.10;2.40;;;;;;;;;;5071199;28;20242;-43
2022/07/31 07:24:39;;;;;;;5.40;3.45;;;;;;;;;;5069541;28;20395;-44
2022/07/31 07:27:04;;;;;;;10.60;2.40;;;;;;;;;;5070578;28;20021;-46
2022/07/31 07:29:29;;;;;;;11.50;3.58;;;;;;;;;;5070613;28;20371;-44
2022/07/31 07:31:55;;;;;;;3.50;2.15;;;;;;;;;;5069117;28;20021;-43
2022/07/31 07:34:20;;;;;;;7.68;2.15;;;;;;;;;;5070643;28;20031;-42
2022/07/31 07:36:45;;;;;;;9.03;2.13;;;;;;;;;;5070753;28;20460;-45
2022/07/31 07:39:11;;;;;;;17.60;2.67;;;;;;;;;;5070255;28;20230;-44
2022/07/31 07:41:37;;;;;;;3.42;2.15;;;;;;;;;;5071307;28;20044;-43
2022/07/31 07:44:02;;;;;;;3.95;2.42;;;;;;;;;;5070111;28;20036;-44
2022/07/31 07:46:28;;;;;;;8.90;2.10;;;;;;;;;;5072024;28;20035;-46
2022/07/31 07:48:53;;;;;;;3.40;2.22;;;;;;;;;;5073720;28;20036;-45
2022/07/31 07:51:19;;;;;;;2.50;2.03;;;;;;;;;;5074298;28;20020;-42
2022/07/31 07:53:44;;;;;;;3.75;2.28;;;;;;;;;;5074127;28;20107;-44
2022/07/31 07:56:10;;;;;;;7.50;2.25;;;;;;;;;;5072776;28;20020;-46
2022/07/31 07:58:35;;;;;;;5.82;2.38;;;;;;;;;;5073911;28;20024;-44
2022/07/31 08:01:00;;;;;;;4.73;2.20;;;;;;;;;;5073613;28;20032;-44
2022/07/31 08:03:26;;;;;;;2.17;1.90;;;;;;;;;;5074449;28;20731;-43
2022/07/31 08:05:51;;;;;;;7.95;2.28;;;;;;;;;;5072686;28;20285;-45
2022/07/31 08:08:16;;;;;;;4.07;2.35;;;;;;;;;;5072789;28;20016;-45
2022/07/31 08:10:42;;;;;;;4.65;2.20;;;;;;;;;;5072199;28;20463;-43
2022/07/31 08:13:07;;;;;;;5.10;2.00;;;;;;;;;;5072063;28;20111;-44
2022/07/31 08:15:32;;;;;;;13.00;2.35;;;;;;;;;;5073134;28;20012;-44
2022/07/31 08:17:58;;;;;;;1.85;1.50;;;;;;;;;;5073946;28;20013;-43
2022/07/31 08:20:23;;;;;;;2.70;1.70;;;;;;;;;;5073478;28;20593;-44
2022/07/31 08:22:48;;;;;;;4.72;1.88;;;;;;;;;;5073664;28;20025;-44
2022/07/31 08:25:13;;;;;;;4.03;2.70;;;;;;;;;;5073696;28;20027;-43
2022/07/31 08:27:39;;;;;;;2.10;1.60;;;;;;;;;;5072946;28;20245;-43
2022/07/31 08:30:04;;;;;;;2.65;1.67;;;;;;;;;;5071766;28;20048;-46
2022/07/31 08:32:31;;;;;;;4.68;1.77;;;;;;;;;;5073667;28;20052;-45
2022/07/31 08:34:56;;;;;;;5.07;1.88;;;;;;;;;;5072023;28;20013;-45
2022/07/31 08:37:21;;;;;;;2.03;1.77;;;;;;;;;;5071863;28;20027;-44
2022/07/31 08:39:50;;;;;;;5.68;3.45;;;;;;;;;;5072842;28;20032;-44
2022/07/31 08:42:16;;;;;;;5.55;1.90;;;;;;;;;;5073462;28;20025;-44
2022/07/31 08:44:43;;;;;;;4.78;1.70;;;;;;;;;;5072902;28;20020;-44
2022/07/31 08:47:08;;;;;;;5.22;2.67;;;;;;;;;;5073206;28;20107;-43
2022/07/31 08:49:36;;;;;;;25.80;2.42;;;;;;;;;;5071663;28;20155;-44
2022/07/31 08:52:02;;;;;;;8.88;2.10;;;;;;;;;;5072871;28;20061;-44
2022/07/31 08:54:29;;;;;;;6.72;2.17;;;;;;;;;;5072199;28;20069;-43
2022/07/31 08:56:55;;;;;;;5.40;1.63;;;;;;;;;;5071327;28;20023;-44
2022/07/31 08:59:21;;;;;;;4.27;2.13;;;;;;;;;;5071417;28;20033;-44
2022/07/31 09:01:47;;;;;;;4.72;1.55;;;;;;;;;;5071405;28;20257;-43
2022/07/31 09:04:12;;;;;;;4.85;1.70;;;;;;;;;;5071356;28;20078;-45
2022/07/31 09:06:38;;;;;;;4.75;1.63;;;;;;;;;;5071315;28;20491;-43
2022/07/31 09:09:04;;;;;;;1.83;1.40;;;;;;;;;;5072728;28;20016;-44
2022/07/31 09:11:30;;;;;;;3.90;1.58;;;;;;;;;;5072322;28;20024;-44
2022/07/31 09:13:58;;;;;;;7.10;3.30;;;;;;;;;;5072333;28;20048;-44
2022/07/31 09:16:23;;;;;;;1.55;1.45;;;;;;;;;;5070989;28;20032;-45
2022/07/31 09:18:55;;;;;;;6.32;1.77;;;;;;;;;;5072504;28;20370;-43
2022/07/31 09:21:21;;;;;;;3.33;1.42;;;;;;;;;;5071170;28;20035;-44
2022/07/31 09:23:46;;;;;;;4.47;1.60;;;;;;;;;;5072745;28;20017;-45
2022/07/31 09:26:12;;;;;;;5.53;1.50;;;;;;;;;;5071039;28;20031;-43
2022/07/31 09:28:39;;;;;;;2.42;1.55;;;;;;;;;;5072510;28;20012;-43
2022/07/31 09:31:05;;;;;;;3.80;1.70;;;;;;;;;;5072481;28;20491;-45
2022/07/31 09:33:31;;;;;;;3.60;1.40;;;;;;;;;;5072405;28;20069;-46
2022/07/31 09:35:57;;;;;;;6.20;1.63;;;;;;;;;;5071256;28;20440;-43
2022/07/31 09:38:28;;;;;;;16.63;2.00;;;;;;;;;;5070559;28;20435;-43
2022/07/31 09:40:53;;;;;;;14.00;1.60;;;;;;;;;;5071815;28;20036;-46
2022/07/31 09:43:23;;;;;;;4.57;1.50;;;;;;;;;;5072081;28;20521;-41
2022/07/31 09:45:58;;;;;;;15.55;1.85;;;;;;;;;;5070767;28;20249;-42
2022/07/31 09:48:23;;;;;;;16.27;1.88;;;;;;;;;;5070195;28;20379;-44
2022/07/31 09:50:52;;;;;;;13.63;2.35;;;;;;;;;;5072126;28;20013;-43
2022/07/31 09:53:18;;;;;;;15.38;2.50;;;;;;;;;;5071497;28;20423;-43
2022/07/31 09:55:54;;;;;;;9.45;1.63;;;;;;;;;;5069939;28;20051;-43
2022/07/31 09:58:20;;;;;;;5.70;1.67;;;;;;;;;;5072081;28;20478;-44
2022/07/31 10:00:46;;;;;;;3.78;1.60;;;;;;;;;;5070402;28;20029;-44
2022/07/31 10:03:12;;;;;;;4.18;1.40;;;;;;;;;;5072033;28;20021;-43
2022/07/31 10:05:40;;;;;;;11.40;1.73;;;;;;;;;;5072011;28;20021;-45
2022/07/31 10:08:06;;;;;;;5.07;1.60;;;;;;;;;;5071506;28;20040;-43
2022/07/31 10:10:31;;;;;;;4.55;1.30;;;;;;;;;;5068422;28;20123;-43
2022/07/31 10:12:58;;;;;;;15.88;1.45;;;;;;;;;;5070472;28;20482;-44
2022/07/31 10:15:25;;;;;;;6.70;1.48;;;;;;;;;;5071310;28;20501;-44
2022/07/31 10:17:50;;;;;;;9.25;1.38;;;;;;;;;;5070282;28;20042;-42
2022/07/31 10:20:24;;;;;;;4.05;1.70;;;;;;;;;;5071872;28;20029;-44
2022/07/31 10:22:54;;;;;;;7.90;1.30;;;;;;;;;;5070269;28;20016;-44
2022/07/31 10:25:29;;;;;;;9.10;1.15;;;;;;;;;;5071423;28;20467;-44
2022/07/31 10:27:56;;;;;;;12.00;1.23;;;;;;;;;;5071498;28;20036;-46
2022/07/31 10:30:22;;;;;;;12.48;1.20;;;;;;;;;;5069524;28;20028;-44
2022/07/31 10:32:49;;;;;;;23.02;2.20;;;;;;;;;;5071328;28;20051;-42
2022/07/31 10:35:14;;;;;;;13.60;1.60;;;;;;;;;;5071278;28;20104;-46
2022/07/31 10:37:57;;;;;;;12.10;1.33;;;;;;;;;;5069237;28;20158;-44
2022/07/31 10:40:22;;;;;;;17.40;1.70;;;;;;;;;;5071156;28;20050;-45
2022/07/31 10:42:55;;;;;;;11.15;1.40;;;;;;;;;;5069464;28;20082;-44
2022/07/31 10:45:22;;;;;;;16.55;2.00;;;;;;;;;;5071373;28;20021;-45
2022/07/31 10:47:53;;;;;;;23.17;1.95;;;;;;;;;;5070212;28;20069;-46
2022/07/31 10:50:23;;;;;;;12.20;1.10;;;;;;;;;;5069879;28;20028;-43
2022/07/31 10:52:48;;;;;;;5.43;1.15;;;;;;;;;;5071279;28;20028;-45
2022/07/31 10:55:15;;;;;;;16.90;1.85;;;;;;;;;;5069809;28;20074;-45
2022/07/31 10:57:40;;;;;;;6.57;1.40;;;;;;;;;;5071405;28;20032;-45
2022/07/31 11:00:10;;;;;;;2.58;1.10;;;;;;;;;;5069597;28;20472;-46
2022/07/31 11:02:36;;;;;;;14.98;1.48;;;;;;;;;;5071288;28;20459;-44
2022/07/31 11:05:12;;;;;;;4.78;1.10;;;;;;;;;;5071024;28;20023;-44
2022/07/31 11:07:38;;;;;;;6.30;1.02;;;;;;;;;;5070009;28;20056;-44
2022/07/31 11:10:07;;;;;;;3.75;1.40;;;;;;;;;;5071306;28;20024;-44
2022/07/31 11:12:32;;;;;;;18.17;1.52;;;;;;;;;;5069663;28;20063;-46
2022/07/31 11:14:58;;;;;;;11.13;1.40;;;;;;;;;;5069291;28;20048;-44
2022/07/31 11:17:33;;;;;;;5.57;1.10;;;;;;;;;;5071102;28;20348;-44
2022/07/31 11:19:58;;;;;;;6.00;0.90;;;;;;;;;;5069725;28;20040;-44
2022/07/31 11:22:24;;;;;;;6.05;1.00;;;;;;;;;;5072404;28;20021;-45
2022/07/31 11:24:57;;;;;;;6.30;1.08;;;;;;;;;;5074766;28;20024;-44
2022/07/31 11:27:29;;;;;;;12.70;1.50;;;;;;;;;;5073187;28;20020;-45
2022/07/31 11:30:01;;;;;;;5.80;1.00;;;;;;;;;;5073264;28;20536;-45
2022/07/31 11:32:27;;;;;;;8.73;1.08;;;;;;;;;;5073348;28;20108;-44
2022/07/31 11:34:53;;;;;;;9.40;1.08;;;;;;;;;;5075162;28;20107;-44
2022/07/31 11:37:19;;;;;;;3.00;1.00;;;;;;;;;;5073216;28;20020;-43
2022/07/31 11:39:45;;;;;;;6.85;1.15;;;;;;;;;;5072603;28;20043;-44
2022/07/31 11:42:10;;;;;;;6.57;1.13;;;;;;;;;;5074048;28;20024;-43
2022/07/31 11:44:35;;;;;;;6.22;1.20;;;;;;;;;;5072942;28;20054;-43
2022/07/31 11:47:01;;;;;;;2.75;1.23;;;;;;;;;;5072620;28;20017;-43
2022/07/31 11:49:27;;;;;;;8.05;1.90;;;;;;;;;;5073164;28;20029;-45
2022/07/31 11:51:59;;;;;;;1.85;1.02;;;;;;;;;;5074019;28;20013;-46
2022/07/31 11:54:24;;;;;;;20.00;1.55;;;;;;;;;;5072673;28;20020;-42
2022/07/31 11:56:53;;;;;;;5.07;1.05;;;;;;;;;;5073083;28;20028;-45
2022/07/31 11:59:28;;;;;;;4.93;1.25;;;;;;;;;;5074048;28;20043;-43
2022/07/31 12:02:00;;;;;;;10.38;1.42;;;;;;;;;;5072772;28;20051;-45
2022/07/31 12:04:26;;;;;;;26.02;2.47;;;;;;;;;;5074279;28;20024;-44
2022/07/31 12:06:55;;;;;;;17.17;1.93;;;;;;;;;;5073828;28;20514;-43
2022/07/31 12:09:20;;;;;;;4.00;1.27;;;;;;;;;;5073406;28;20242;-45
2022/07/31 12:11:46;;;;;;;2.08;1.25;;;;;;;;;;5073923;28;20032;-43
2022/07/31 12:14:12;;;;;;;8.73;1.30;;;;;;;;;;5073549;28;20029;-44
2022/07/31 12:16:39;;;;;;;3.25;1.33;;;;;;;;;;5073934;28;20044;-45
2022/07/31 12:19:04;;;;;;;7.57;1.58;;;;;;;;;;5073967;28;20016;-45
2022/07/31 12:21:29;;;;;;;5.80;1.10;;;;;;;;;;5073849;28;20077;-43
2022/07/31 12:23:54;;;;;;;6.45;1.40;;;;;;;;;;5074101;28;20028;-44
2022/07/31 12:26:21;;;;;;;43.60;2.60;;;;;;;;;;5073203;28;20037;-45
2022/07/31 12:28:57;;;;;;;3.30;1.30;;;;;;;;;;5072297;28;20253;-44
2022/07/31 12:31:22;;;;;;;5.03;1.10;;;;;;;;;;5073857;28;20502;-44
2022/07/31 12:33:47;;;;;;;6.22;1.20;;;;;;;;;;5072205;28;20024;-44
2022/07/31 12:36:13;;;;;;;4.55;1.38;;;;;;;;;;5072338;28;20174;-44
2022/07/31 12:38:39;;;;;;;1.15;1.02;;;;;;;;;;5073465;28;20555;-44
2022/07/31 12:41:04;;;;;;;2.55;1.13;;;;;;;;;;5071167;28;20052;-46
2022/07/31 12:43:30;;;;;;;4.50;1.65;;;;;;;;;;5073115;28;20095;-44
2022/07/31 12:45:59;;;;;;;6.13;1.58;;;;;;;;;;5073665;28;20099;-44
2022/07/31 12:48:25;;;;;;;3.05;0.95;;;;;;;;;;5073573;28;20040;-44
2022/07/31 12:50:50;;;;;;;4.70;1.40;;;;;;;;;;5071976;28;20012;-45
2022/07/31 12:53:15;;;;;;;2.50;1.10;;;;;;;;;;5071599;28;20452;-45
2022/07/31 12:55:41;;;;;;;8.10;1.20;;;;;;;;;;5071704;28;20253;-44
2022/07/31 12:58:06;;;;;;;4.60;1.03;;;;;;;;;;5073335;28;20017;-45
2022/07/31 13:00:31;;;;;;;7.07;1.60;;;;;;;;;;5071724;28;20644;-45
2022/07/31 13:02:57;;;;;;;7.60;1.40;;;;;;;;;;5073191;28;20464;-43
2022/07/31 13:05:22;;;;;;;10.50;1.30;;;;;;;;;;5072935;28;20249;-42
2022/07/31 13:07:48;;;;;;;2.03;1.08;;;;;;;;;;5073132;28;20440;-47
2022/07/31 13:10:14;;;;;;;5.90;1.30;;;;;;;;;;5072288;28;20020;-44
2022/07/31 13:12:39;;;;;;;3.15;1.23;;;;;;;;;;5070649;28;20463;-45
2022/07/31 13:15:05;;;;;;;4.15;0.90;;;;;;;;;;5072686;28;20431;-45
2022/07/31 13:17:30;;;;;;;8.35;1.42;;;;;;;;;;5072772;28;20024;-46
2022/07/31 13:19:55;;;;;;;4.35;1.00;;;;;;;;;;5072772;28;20119;-45
2022/07/31 13:22:21;;;;;;;11.23;1.55;;;;;;;;;;5072691;28;20370;-44
2022/07/31 13:24:46;;;;;;;6.55;1.30;;;;;;;;;;5072785;28;20020;-43
2022/07/31 13:27:11;;;;;;;13.10;1.47;;;;;;;;;;5071911;28;20079;-46
2022/07/31 13:29:37;;;;;;;12.18;1.85;;;;;;;;;;5071357;28;20260;-43
2022/07/31 13:32:02;;;;;;;11.17;2.43;;;;;;;;;;5072669;28;20518;-44
2022/07/31 13:34:27;;;;;;;13.27;1.42;;;;;;;;;;5072155;28;20328;-44
2022/07/31 13:36:53;;;;;;;8.77;1.60;;;;;;;;;;5072207;28;20028;-44
2022/07/31 13:39:18;;;;;;;3.72;1.10;;;;;;;;;;5071937;28;20631;-43
2022/07/31 13:41:43;;;;;;;4.18;1.25;;;;;;;;;;5071859;28;20025;-44
2022/07/31 13:44:08;;;;;;;6.23;1.30;;;;;;;;;;5072030;28;20020;-42
2022/07/31 13:46:34;;;;;;;5.80;0.83;;;;;;;;;;5072352;28;20740;-44
2022/07/31 13:48:59;;;;;;;3.47;1.10;;;;;;;;;;5072315;28;20295;-44
2022/07/31 13:51:25;;;;;;;8.77;1.27;;;;;;;;;;5072234;28;20102;-43
2022/07/31 13:53:50;;;;;;;8.02;1.10;;;;;;;;;;5071521;28;20530;-44
2022/07/31 13:56:16;;;;;;;3.10;1.20;;;;;;;;;;5071183;28;20024;-45
2022/07/31 13:58:41;;;;;;;6.95;1.92;;;;;;;;;;5071694;28;20322;-44
2022/07/31 14:01:06;;;;;;;6.15;1.17;;;;;;;;;;5071576;28;20032;-44
2022/07/31 14:03:32;;;;;;;8.18;1.38;;;;;;;;;;5070528;28;20032;-44
2022/07/31 14:05:57;;;;;;;4.93;1.50;;;;;;;;;;5071601;28;20024;-47
2022/07/31 14:08:22;;;;;;;4.28;1.10;;;;;;;;;;5071902;28;20265;-46
2022/07/31 14:10:48;;;;;;;4.50;1.00;;;;;;;;;;5072102;28;20052;-44
2022/07/31 14:13:14;;;;;;;2.25;1.20;;;;;;;;;;5070431;28;20017;-44
2022/07/31 14:15:39;;;;;;;2.78;1.10;;;;;;;;;;5071840;28;20099;-45
2022/07/31 14:18:05;;;;;;;1.13;0.97;;;;;;;;;;5071583;28;20020;-46
2022/07/31 14:20:32;;;;;;;5.80;1.30;;;;;;;;;;5071667;28;20281;-44
2022/07/31 14:22:57;;;;;;;3.33;1.15;;;;;;;;;;5071611;28;20016;-45
2022/07/31 14:25:23;;;;;;;21.10;1.48;;;;;;;;;;5071193;28;20025;-44
2022/07/31 14:27:49;;;;;;;3.90;0.90;;;;;;;;;;5069449;28;20031;-44
2022/07/31 14:30:14;;;;;;;8.50;1.20;;;;;;;;;;5071475;28;20124;-45
2022/07/31 14:32:40;;;;;;;2.05;1.00;;;;;;;;;;5071350;28;20107;-46
2022/07/31 14:35:06;;;;;;;6.15;1.08;;;;;;;;;;5071060;28;20104;-44
2022/07/31 14:37:31;;;;;;;3.95;1.52;;;;;;;;;;5071196;28;20464;-47